Gure Amuitz — EASO — position and weather

sailwx.info

Track history (hours):
 
Tides and Currents Weather Stations Pressure Air Temp Water Temp Dewpoint Dewpoint Depression Visibility Wind Speed Wind Dir Waves Ship Positions

Gure Amuitz

Last reported at 2014-Oct-20 22:31 UTC. Time now 2014-Oct-21 00:33 UTC.
Position N 44°26' W 001°31'.

Length 28 m.

Type: Fishing. MMSI: 224010590.

Date/timePositionNaut miles runAvg speedWind from/ knotsBaromVisibWave heightAir tempDewpointWater temp
2014-Oct-20 22:31N 44°26' W 001°31'8 8.6
2014-Oct-20 21:33N 44°34' W 001°30'0 0.5
2014-Oct-20 20:33N 44°34' W 001°31'3 3.2
2014-Oct-20 19:30N 44°37' W 001°32'11 9.7
2014-Oct-20 18:21N 44°26' W 001°31'14 7.6
2014-Oct-20 16:33N 44°13' W 001°36'10 9.5
2014-Oct-20 15:33N 44°04' W 001°37'10 9.5
2014-Oct-20 14:29N 43°54' W 001°39'11 9.5
2014-Oct-20 13:18N 43°43' W 001°42'10 9.5
2014-Oct-20 12:16N 43°33' W 001°44'7 9.8
2014-Oct-20 11:33N 43°26' W 001°46'3 3.1
2014-Oct-20 10:33N 43°23' W 001°48'  
2014-Oct-17 10:07N 43°23' W 001°47'0 0.1
2014-Oct-17 09:30N 43°23' W 001°47'0 0.0
2014-Oct-17 08:30N 43°23' W 001°47'1 0.1
2014-Oct-17 01:18N 43°24' W 001°48'1 0.5
2014-Oct-16 23:19N 43°23' W 001°47'0 0.0
2014-Oct-16 21:18N 43°23' W 001°47'0 0.0
2014-Oct-16 20:22N 43°23' W 001°47'0 0.0
2014-Oct-16 19:10N 43°23' W 001°47'0 0.2
2014-Oct-16 18:33N 43°23' W 001°48'0 0.0
2014-Oct-16 17:31N 43°23' W 001°48'0 0.0
2014-Oct-16 16:30N 43°23' W 001°48'60 9.2
2014-Oct-16 10:03N 44°22' W 001°39'510.1
2014-Oct-16 09:33N 44°27' W 001°39'10 9.9
2014-Oct-16 08:33N 44°37' W 001°38'1010.3
2014-Oct-16 07:33N 44°48' W 001°35'9 0.7
2014-Oct-15 18:33N 44°57' W 001°34'1010.3
2014-Oct-15 17:33N 44°47' W 001°37'11 9.1
2014-Oct-15 16:23N 44°36' W 001°38'73 9.0
2014-Oct-15 08:18N 43°23' W 001°47'0 0.3
2014-Oct-15 07:33N 43°23' W 001°48'11 0.8
2014-Oct-14 18:11N 43°34' W 001°42'11 3.8
2014-Oct-14 15:15N 43°23' W 001°48'16 7.9
2014-Oct-14 13:13N 43°39' W 001°45'46 9.9
2014-Oct-14 08:33N 44°25' W 001°37'1010.0
2014-Oct-14 07:33N 44°35' W 001°35'1010.2
2014-Oct-14 06:33N 44°45' W 001°33'9 9.2
2014-Oct-14 05:33N 44°54' W 001°31'2 2.0
2014-Oct-14 04:33N 44°56' W 001°31'1 0.4
2014-Oct-14 02:33N 44°56' W 001°32'1 0.7
2014-Oct-14 01:33N 44°56' W 001°31'1 0.5
2014-Oct-14 00:30N 44°55' W 001°31'3 0.7
2014-Oct-13 20:33N 44°53' W 001°33'9 8.6
2014-Oct-13 19:33N 44°44' W 001°30'9 9.3
2014-Oct-13 18:33N 44°35' W 001°30'73 9.0
2014-Oct-13 10:31N 43°23' W 001°47'  
Track history (hours):
 
Tides and Currents Weather Stations Pressure Air Temp Water Temp Dewpoint Dewpoint Depression Visibility Wind Speed Wind Dir Waves Ship Positions

Gure Amuitz

Last reported at 2014-Oct-20 22:31 UTC. Time now 2014-Oct-21 00:33 UTC.
Position N 44°26' W 001°31'.

Length 28 m.

Type: Fishing. MMSI: 224010590.

Date/timePositionNaut miles runAvg speedWind from/ knotsBaromVisibWave heightAir tempDewpointWater temp
2014-Oct-20 22:31N 44°26' W 001°31'8 8.6
2014-Oct-20 21:33N 44°34' W 001°30'0 0.5
2014-Oct-20 20:33N 44°34' W 001°31'3 3.2
2014-Oct-20 19:30N 44°37' W 001°32'11 9.7
2014-Oct-20 18:21N 44°26' W 001°31'14 7.6
2014-Oct-20 16:33N 44°13' W 001°36'10 9.5
2014-Oct-20 15:33N 44°04' W 001°37'10 9.5
2014-Oct-20 14:29N 43°54' W 001°39'11 9.5
2014-Oct-20 13:18N 43°43' W 001°42'10 9.5
2014-Oct-20 12:16N 43°33' W 001°44'7 9.8
2014-Oct-20 11:33N 43°26' W 001°46'3 3.1
2014-Oct-20 10:33N 43°23' W 001°48'  
2014-Oct-17 10:07N 43°23' W 001°47'0 0.1
2014-Oct-17 09:30N 43°23' W 001°47'0 0.0
2014-Oct-17 08:30N 43°23' W 001°47'1 0.1
2014-Oct-17 01:18N 43°24' W 001°48'1 0.5
2014-Oct-16 23:19N 43°23' W 001°47'0 0.0
2014-Oct-16 21:18N 43°23' W 001°47'0 0.0
2014-Oct-16 20:22N 43°23' W 001°47'0 0.0
2014-Oct-16 19:10N 43°23' W 001°47'0 0.2
2014-Oct-16 18:33N 43°23' W 001°48'0 0.0
2014-Oct-16 17:31N 43°23' W 001°48'0 0.0
2014-Oct-16 16:30N 43°23' W 001°48'60 9.2
2014-Oct-16 10:03N 44°22' W 001°39'510.1
2014-Oct-16 09:33N 44°27' W 001°39'10 9.9
2014-Oct-16 08:33N 44°37' W 001°38'1010.3
2014-Oct-16 07:33N 44°48' W 001°35'9 0.7
2014-Oct-15 18:33N 44°57' W 001°34'1010.3
2014-Oct-15 17:33N 44°47' W 001°37'11 9.1
2014-Oct-15 16:23N 44°36' W 001°38'73 9.0
2014-Oct-15 08:18N 43°23' W 001°47'0 0.3
2014-Oct-15 07:33N 43°23' W 001°48'11 0.8
2014-Oct-14 18:11N 43°34' W 001°42'11 3.8
2014-Oct-14 15:15N 43°23' W 001°48'16 7.9
2014-Oct-14 13:13N 43°39' W 001°45'46 9.9
2014-Oct-14 08:33N 44°25' W 001°37'1010.0
2014-Oct-14 07:33N 44°35' W 001°35'1010.2
2014-Oct-14 06:33N 44°45' W 001°33'9 9.2
2014-Oct-14 05:33N 44°54' W 001°31'2 2.0
2014-Oct-14 04:33N 44°56' W 001°31'1 0.4
2014-Oct-14 02:33N 44°56' W 001°32'1 0.7
2014-Oct-14 01:33N 44°56' W 001°31'1 0.5
2014-Oct-14 00:30N 44°55' W 001°31'3 0.7
2014-Oct-13 20:33N 44°53' W 001°33'9 8.6
2014-Oct-13 19:33N 44°44' W 001°30'9 9.3
2014-Oct-13 18:33N 44°35' W 001°30'73 9.0
2014-Oct-13 10:31N 43°23' W 001°47'  

Dump ship's entire track history